sensor_id;sensor_type;location;lat;lon;timestamp;pressure;altitude;pressure_sealevel;temperature;humidity
9899;BME280;4988;49.238;6.698;2022-08-16T00:01:16;98371.34;;;19.31;93.60
9899;BME280;4988;49.238;6.698;2022-08-16T00:03:42;98358.28;;;19.26;94.36
9899;BME280;4988;49.238;6.698;2022-08-16T00:06:08;98360.81;;;19.27;94.19
9899;BME280;4988;49.238;6.698;2022-08-16T00:08:33;98365.53;;;19.25;93.80
9899;BME280;4988;49.238;6.698;2022-08-16T00:10:58;98362.66;;;19.27;93.92
9899;BME280;4988;49.238;6.698;2022-08-16T00:13:24;98360.53;;;19.31;94.18
9899;BME280;4988;49.238;6.698;2022-08-16T00:15:49;98366.34;;;19.36;93.63
9899;BME280;4988;49.238;6.698;2022-08-16T00:18:16;98363.78;;;19.34;93.24
9899;BME280;4988;49.238;6.698;2022-08-16T00:20:44;98363.41;;;19.19;93.65
9899;BME280;4988;49.238;6.698;2022-08-16T00:23:11;98377.59;;;19.02;94.84
9899;BME280;4988;49.238;6.698;2022-08-16T00:25:37;98372.66;;;18.87;95.92
9899;BME280;4988;49.238;6.698;2022-08-16T00:28:03;98376.19;;;18.78;97.10
9899;BME280;4988;49.238;6.698;2022-08-16T00:30:29;98375.59;;;18.64;98.38
9899;BME280;4988;49.238;6.698;2022-08-16T00:32:57;98375.34;;;18.58;98.92
9899;BME280;4988;49.238;6.698;2022-08-16T00:35:26;98377.59;;;18.53;98.94
9899;BME280;4988;49.238;6.698;2022-08-16T00:37:52;98376.56;;;18.44;100.00
9899;BME280;4988;49.238;6.698;2022-08-16T00:40:24;98384.09;;;18.40;100.00
9899;BME280;4988;49.238;6.698;2022-08-16T00:42:49;98387.47;;;18.32;100.00
9899;BME280;4988;49.238;6.698;2022-08-16T00:45:56;98390.00;;;18.24;100.00
9899;BME280;4988;49.238;6.698;2022-08-16T00:48:23;98394.97;;;18.19;100.00
9899;BME280;4988;49.238;6.698;2022-08-16T00:50:48;98386.47;;;18.24;100.00
9899;BME280;4988;49.238;6.698;2022-08-16T00:53:15;98394.72;;;18.32;100.00
9899;BME280;4988;49.238;6.698;2022-08-16T00:55:49;98383.09;;;18.41;100.00
9899;BME280;4988;49.238;6.698;2022-08-16T00:58:18;98385.13;;;18.49;99.42
9899;BME280;4988;49.238;6.698;2022-08-16T01:00:46;98382.97;;;18.62;97.80
9899;BME280;4988;49.238;6.698;2022-08-16T01:03:14;98386.97;;;18.68;97.15
9899;BME280;4988;49.238;6.698;2022-08-16T01:05:42;98379.75;;;18.69;96.75
9899;BME280;4988;49.238;6.698;2022-08-16T01:08:10;98381.88;;;18.75;96.19
9899;BME280;4988;49.238;6.698;2022-08-16T01:10:36;98384.00;;;18.71;96.78
9899;BME280;4988;49.238;6.698;2022-08-16T01:13:14;98382.44;;;18.69;96.74
9899;BME280;4988;49.238;6.698;2022-08-16T01:15:44;98375.47;;;18.76;96.48
9899;BME280;4988;49.238;6.698;2022-08-16T01:18:15;98373.47;;;18.78;96.07
9899;BME280;4988;49.238;6.698;2022-08-16T01:20:47;98372.50;;;18.79;95.83
9899;BME280;4988;49.238;6.698;2022-08-16T01:23:35;98382.41;;;18.88;95.16
9899;BME280;4988;49.238;6.698;2022-08-16T01:26:03;98379.72;;;18.88;94.86
9899;BME280;4988;49.238;6.698;2022-08-16T01:28:29;98376.19;;;18.88;94.48
9899;BME280;4988;49.238;6.698;2022-08-16T01:30:55;98376.44;;;18.85;94.84
9899;BME280;4988;49.238;6.698;2022-08-16T01:33:22;98380.44;;;18.80;94.70
9899;BME280;4988;49.238;6.698;2022-08-16T01:35:55;98384.56;;;18.65;95.18
9899;BME280;4988;49.238;6.698;2022-08-16T01:40:53;98386.22;;;18.27;97.13
9899;BME280;4988;49.238;6.698;2022-08-16T01:43:20;98387.06;;;18.27;97.81
9899;BME280;4988;49.238;6.698;2022-08-16T01:45:46;98383.09;;;18.31;97.16
9899;BME280;4988;49.238;6.698;2022-08-16T01:48:12;98388.06;;;18.36;97.18
9899;BME280;4988;49.238;6.698;2022-08-16T01:50:39;98390.75;;;18.36;97.03
9899;BME280;4988;49.238;6.698;2022-08-16T01:53:06;98381.69;;;18.37;97.82
9899;BME280;4988;49.238;6.698;2022-08-16T01:55:32;98397.00;;;18.27;99.07
9899;BME280;4988;49.238;6.698;2022-08-16T01:57:58;98394.72;;;18.22;98.86
9899;BME280;4988;49.238;6.698;2022-08-16T02:00:25;98391.59;;;18.27;98.28
9899;BME280;4988;49.238;6.698;2022-08-16T02:02:50;98386.75;;;18.30;97.71
9899;BME280;4988;49.238;6.698;2022-08-16T02:05:16;98386.66;;;18.32;97.04
9899;BME280;4988;49.238;6.698;2022-08-16T02:07:41;98387.22;;;18.36;96.61
9899;BME280;4988;49.238;6.698;2022-08-16T02:10:09;98379.13;;;18.36;95.81
9899;BME280;4988;49.238;6.698;2022-08-16T02:12:35;98379.41;;;18.32;95.75
9899;BME280;4988;49.238;6.698;2022-08-16T02:15:00;98372.31;;;18.31;95.96
9899;BME280;4988;49.238;6.698;2022-08-16T02:17:26;98379.53;;;18.31;96.13
9899;BME280;4988;49.238;6.698;2022-08-16T02:19:52;98374.88;;;18.33;96.47
9899;BME280;4988;49.238;6.698;2022-08-16T02:22:20;98373.84;;;18.24;96.47
9899;BME280;4988;49.238;6.698;2022-08-16T02:24:46;98381.94;;;18.24;97.05
9899;BME280;4988;49.238;6.698;2022-08-16T02:27:12;98378.81;;;18.29;97.42
9899;BME280;4988;49.238;6.698;2022-08-16T02:29:37;98379.81;;;18.28;97.54
9899;BME280;4988;49.238;6.698;2022-08-16T02:32:05;98371.31;;;18.32;97.79
9899;BME280;4988;49.238;6.698;2022-08-16T02:34:31;98377.56;;;18.23;97.72
9899;BME280;4988;49.238;6.698;2022-08-16T02:36:57;98383.91;;;18.12;98.23
9899;BME280;4988;49.238;6.698;2022-08-16T02:39:22;98386.19;;;18.17;98.09
9899;BME280;4988;49.238;6.698;2022-08-16T02:41:49;98392.81;;;18.13;98.67
9899;BME280;4988;49.238;6.698;2022-08-16T02:44:15;98384.47;;;18.16;98.61
9899;BME280;4988;49.238;6.698;2022-08-16T02:46:41;98385.91;;;18.20;99.26
9899;BME280;4988;49.238;6.698;2022-08-16T02:49:07;98387.31;;;18.24;98.35
9899;BME280;4988;49.238;6.698;2022-08-16T02:51:33;98381.94;;;18.24;98.67
9899;BME280;4988;49.238;6.698;2022-08-16T02:53:59;98385.75;;;18.22;98.38
9899;BME280;4988;49.238;6.698;2022-08-16T02:56:25;98380.38;;;18.22;98.40
9899;BME280;4988;49.238;6.698;2022-08-16T02:58:51;98380.25;;;18.23;98.09
9899;BME280;4988;49.238;6.698;2022-08-16T03:01:19;98371.31;;;18.32;97.16
9899;BME280;4988;49.238;6.698;2022-08-16T03:03:46;98370.47;;;18.32;97.54
9899;BME280;4988;49.238;6.698;2022-08-16T03:06:12;98370.88;;;18.27;97.53
9899;BME280;4988;49.238;6.698;2022-08-16T03:08:38;98371.44;;;18.21;97.82
9899;BME280;4988;49.238;6.698;2022-08-16T03:11:04;98366.59;;;18.15;97.26
9899;BME280;4988;49.238;6.698;2022-08-16T03:13:30;98378.38;;;18.14;97.59
9899;BME280;4988;49.238;6.698;2022-08-16T03:15:57;98377.97;;;18.19;97.12
9899;BME280;4988;49.238;6.698;2022-08-16T03:18:22;98369.16;;;18.16;97.33
9899;BME280;4988;49.238;6.698;2022-08-16T03:20:48;98369.88;;;18.19;96.37
9899;BME280;4988;49.238;6.698;2022-08-16T03:23:13;98367.72;;;18.03;96.97
9899;BME280;4988;49.238;6.698;2022-08-16T03:25:38;98363.59;;;17.98;96.80
9899;BME280;4988;49.238;6.698;2022-08-16T03:28:06;98368.88;;;18.10;96.12
9899;BME280;4988;49.238;6.698;2022-08-16T03:30:33;98366.00;;;18.02;95.94
9899;BME280;4988;49.238;6.698;2022-08-16T03:32:59;98364.84;;;17.94;96.30
9899;BME280;4988;49.238;6.698;2022-08-16T03:35:28;98366.56;;;17.95;96.19
9899;BME280;4988;49.238;6.698;2022-08-16T03:37:56;98369.63;;;17.91;96.59
9899;BME280;4988;49.238;6.698;2022-08-16T03:40:22;98371.72;;;17.87;95.86
9899;BME280;4988;49.238;6.698;2022-08-16T03:42:48;98375.88;;;17.91;96.55
9899;BME280;4988;49.238;6.698;2022-08-16T03:45:13;98367.47;;;17.84;96.68
9899;BME280;4988;49.238;6.698;2022-08-16T03:47:40;98365.31;;;17.78;97.30
9899;BME280;4988;49.238;6.698;2022-08-16T03:50:06;98368.31;;;17.75;96.74
9899;BME280;4988;49.238;6.698;2022-08-16T03:52:33;98374.88;;;17.61;96.14
9899;BME280;4988;49.238;6.698;2022-08-16T03:54:59;98369.78;;;17.58;95.76
9899;BME280;4988;49.238;6.698;2022-08-16T03:57:26;98379.69;;;17.58;97.35
9899;BME280;4988;49.238;6.698;2022-08-16T03:59:52;98372.16;;;17.51;97.81
9899;BME280;4988;49.238;6.698;2022-08-16T04:02:17;98375.66;;;17.42;97.75
9899;BME280;4988;49.238;6.698;2022-08-16T04:04:43;98373.34;;;17.38;97.61
9899;BME280;4988;49.238;6.698;2022-08-16T04:07:08;98375.59;;;17.32;96.96
9899;BME280;4988;49.238;6.698;2022-08-16T04:09:34;98378.63;;;17.18;97.21
9899;BME280;4988;49.238;6.698;2022-08-16T04:12:00;98382.88;;;16.99;97.97
9899;BME280;4988;49.238;6.698;2022-08-16T04:14:26;98382.63;;;16.91;98.77
9899;BME280;4988;49.238;6.698;2022-08-16T04:16:51;98385.53;;;16.78;99.82
9899;BME280;4988;49.238;6.698;2022-08-16T04:19:16;98388.50;;;16.64;100.00
9899;BME280;4988;49.238;6.698;2022-08-16T04:21:42;98390.31;;;16.42;100.00
9899;BME280;4988;49.238;6.698;2022-08-16T04:24:07;98398.78;;;16.26;100.00
9899;BME280;4988;49.238;6.698;2022-08-16T04:26:32;98388.16;;;16.13;100.00
9899;BME280;4988;49.238;6.698;2022-08-16T04:28:59;98394.91;;;16.07;100.00
9899;BME280;4988;49.238;6.698;2022-08-16T04:31:25;98404.44;;;16.00;100.00
9899;BME280;4988;49.238;6.698;2022-08-16T04:33:50;98407.84;;;15.91;100.00
9899;BME280;4988;49.238;6.698;2022-08-16T04:36:18;98398.06;;;15.90;100.00
9899;BME280;4988;49.238;6.698;2022-08-16T04:38:44;98392.44;;;16.04;100.00
9899;BME280;4988;49.238;6.698;2022-08-16T04:41:09;98383.16;;;16.20;100.00
9899;BME280;4988;49.238;6.698;2022-08-16T04:43:35;98385.53;;;16.34;100.00
9899;BME280;4988;49.238;6.698;2022-08-16T04:46:03;98385.13;;;16.50;100.00
9899;BME280;4988;49.238;6.698;2022-08-16T04:48:28;98394.84;;;16.63;100.00
9899;BME280;4988;49.238;6.698;2022-08-16T04:50:54;98389.47;;;16.74;100.00
9899;BME280;4988;49.238;6.698;2022-08-16T04:53:20;98398.69;;;16.81;100.00
9899;BME280;4988;49.238;6.698;2022-08-16T04:55:45;98399.19;;;16.86;100.00
9899;BME280;4988;49.238;6.698;2022-08-16T04:58:10;98382.63;;;16.91;100.00
9899;BME280;4988;49.238;6.698;2022-08-16T05:00:36;98384.38;;;16.92;99.55
9899;BME280;4988;49.238;6.698;2022-08-16T05:03:07;98389.25;;;16.98;99.41
9899;BME280;4988;49.238;6.698;2022-08-16T05:05:35;98389.59;;;17.05;99.83
9899;BME280;4988;49.238;6.698;2022-08-16T05:08:01;98394.97;;;17.05;99.82
9899;BME280;4988;49.238;6.698;2022-08-16T05:10:27;98393.84;;;17.08;100.00
9899;BME280;4988;49.238;6.698;2022-08-16T05:12:53;98402.63;;;17.10;99.92
9899;BME280;4988;49.238;6.698;2022-08-16T05:15:19;98392.78;;;17.20;100.00
9899;BME280;4988;49.238;6.698;2022-08-16T05:17:44;98396.91;;;17.24;100.00
9899;BME280;4988;49.238;6.698;2022-08-16T05:20:10;98400.19;;;17.28;100.00
9899;BME280;4988;49.238;6.698;2022-08-16T05:22:36;98396.59;;;17.39;100.00
9899;BME280;4988;49.238;6.698;2022-08-16T05:25:04;98397.78;;;17.46;99.79
9899;BME280;4988;49.238;6.698;2022-08-16T05:27:30;98405.31;;;17.52;99.54
9899;BME280;4988;49.238;6.698;2022-08-16T05:29:55;98412.84;;;17.58;99.47
9899;BME280;4988;49.238;6.698;2022-08-16T05:32:20;98414.72;;;17.67;98.83
9899;BME280;4988;49.238;6.698;2022-08-16T05:34:46;98425.97;;;17.73;98.49
9899;BME280;4988;49.238;6.698;2022-08-16T05:37:11;98421.28;;;17.75;98.14
9899;BME280;4988;49.238;6.698;2022-08-16T05:39:36;98430.81;;;17.79;98.58
9899;BME280;4988;49.238;6.698;2022-08-16T05:42:02;98423.19;;;17.84;97.75
9899;BME280;4988;49.238;6.698;2022-08-16T05:44:28;98425.81;;;17.74;98.38
9899;BME280;4988;49.238;6.698;2022-08-16T05:46:56;98426.06;;;17.71;99.33
9899;BME280;4988;49.238;6.698;2022-08-16T05:49:22;98433.06;;;17.83;98.61
9899;BME280;4988;49.238;6.698;2022-08-16T05:51:48;98427.72;;;17.93;98.75
9899;BME280;4988;49.238;6.698;2022-08-16T05:54:15;98432.06;;;18.06;98.86
9899;BME280;4988;49.238;6.698;2022-08-16T05:56:42;98430.97;;;18.18;97.41
9899;BME280;4988;49.238;6.698;2022-08-16T05:59:10;98431.28;;;18.25;96.96
9899;BME280;4988;49.238;6.698;2022-08-16T06:01:36;98427.19;;;18.30;97.04
9899;BME280;4988;49.238;6.698;2022-08-16T06:04:02;98427.09;;;18.42;95.29
9899;BME280;4988;49.238;6.698;2022-08-16T06:06:27;98431.91;;;18.48;94.24
9899;BME280;4988;49.238;6.698;2022-08-16T06:08:53;98440.28;;;18.45;94.42
9899;BME280;4988;49.238;6.698;2022-08-16T06:11:18;98435.59;;;18.47;95.22
9899;BME280;4988;49.238;6.698;2022-08-16T06:13:43;98443.28;;;18.52;94.67
9899;BME280;4988;49.238;6.698;2022-08-16T06:16:12;98444.44;;;18.69;94.44
9899;BME280;4988;49.238;6.698;2022-08-16T06:18:37;98439.47;;;18.74;94.09
9899;BME280;4988;49.238;6.698;2022-08-16T06:21:03;98434.94;;;18.74;93.57
9899;BME280;4988;49.238;6.698;2022-08-16T06:23:28;98435.06;;;18.73;94.48
9899;BME280;4988;49.238;6.698;2022-08-16T06:25:54;98431.41;;;18.74;94.81
9899;BME280;4988;49.238;6.698;2022-08-16T06:28:19;98437.34;;;18.77;95.54
9899;BME280;4988;49.238;6.698;2022-08-16T06:30:45;98437.78;;;18.83;95.71
9899;BME280;4988;49.238;6.698;2022-08-16T06:33:15;98445.47;;;18.87;95.22
9899;BME280;4988;49.238;6.698;2022-08-16T06:35:41;98443.44;;;18.89;95.87
9899;BME280;4988;49.238;6.698;2022-08-16T06:38:07;98444.44;;;18.88;96.52
9899;BME280;4988;49.238;6.698;2022-08-16T06:40:32;98437.81;;;18.92;96.58
9899;BME280;4988;49.238;6.698;2022-08-16T06:42:58;98445.03;;;19.02;96.42
9899;BME280;4988;49.238;6.698;2022-08-16T06:45:24;98444.06;;;19.12;95.98
9899;BME280;4988;49.238;6.698;2022-08-16T06:47:50;98439.66;;;19.21;95.38
9899;BME280;4988;49.238;6.698;2022-08-16T06:50:16;98435.09;;;19.32;95.40
9899;BME280;4988;49.238;6.698;2022-08-16T06:52:43;98445.88;;;19.41;95.20
9899;BME280;4988;49.238;6.698;2022-08-16T06:55:11;98440.16;;;19.54;94.10
9899;BME280;4988;49.238;6.698;2022-08-16T06:57:37;98438.44;;;19.63;93.62
9899;BME280;4988;49.238;6.698;2022-08-16T07:00:06;98445.69;;;19.72;93.60
9899;BME280;4988;49.238;6.698;2022-08-16T07:02:39;98444.94;;;19.80;92.83
9899;BME280;4988;49.238;6.698;2022-08-16T07:05:06;98451.19;;;19.81;92.83
9899;BME280;4988;49.238;6.698;2022-08-16T07:07:32;98448.66;;;19.69;93.94
9899;BME280;4988;49.238;6.698;2022-08-16T07:09:58;98457.09;;;19.56;94.89
9899;BME280;4988;49.238;6.698;2022-08-16T07:12:23;98454.66;;;19.53;95.44
9899;BME280;4988;49.238;6.698;2022-08-16T07:14:49;98449.09;;;19.65;94.87
9899;BME280;4988;49.238;6.698;2022-08-16T07:17:14;98448.63;;;19.79;95.02
9899;BME280;4988;49.238;6.698;2022-08-16T07:19:43;98451.69;;;20.04;93.75
9899;BME280;4988;49.238;6.698;2022-08-16T07:22:09;98453.69;;;20.12;91.81
9899;BME280;4988;49.238;6.698;2022-08-16T07:24:34;98453.53;;;20.13;92.55
9899;BME280;4988;49.238;6.698;2022-08-16T07:26:59;98447.03;;;20.34;91.13
9899;BME280;4988;49.238;6.698;2022-08-16T07:29:25;98455.59;;;20.47;90.62
9899;BME280;4988;49.238;6.698;2022-08-16T07:31:51;98458.69;;;20.34;90.76
9899;BME280;4988;49.238;6.698;2022-08-16T07:34:16;98457.78;;;20.44;90.91
9899;BME280;4988;49.238;6.698;2022-08-16T07:36:42;98462.94;;;20.37;90.35
9899;BME280;4988;49.238;6.698;2022-08-16T07:39:10;98449.19;;;20.48;90.39
9899;BME280;4988;49.238;6.698;2022-08-16T07:41:35;98453.09;;;20.64;89.17
9899;BME280;4988;49.238;6.698;2022-08-16T07:44:02;98458.16;;;20.77;88.22
9899;BME280;4988;49.238;6.698;2022-08-16T07:46:27;98452.63;;;20.96;88.20
9899;BME280;4988;49.238;6.698;2022-08-16T07:48:53;98456.56;;;21.20;86.17
9899;BME280;4988;49.238;6.698;2022-08-16T07:51:22;98452.81;;;21.39;85.63
9899;BME280;4988;49.238;6.698;2022-08-16T07:53:47;98451.25;;;21.55;84.68
9899;BME280;4988;49.238;6.698;2022-08-16T07:56:17;98460.53;;;21.70;83.54
9899;BME280;4988;49.238;6.698;2022-08-16T07:58:43;98459.59;;;21.79;82.62
9899;BME280;4988;49.238;6.698;2022-08-16T08:01:09;98460.13;;;21.83;82.25
9899;BME280;4988;49.238;6.698;2022-08-16T08:03:34;98464.56;;;21.66;82.89
9899;BME280;4988;49.238;6.698;2022-08-16T08:06:00;98454.94;;;21.72;83.60
9899;BME280;4988;49.238;6.698;2022-08-16T08:08:27;98454.91;;;21.90;83.29
9899;BME280;4988;49.238;6.698;2022-08-16T08:10:54;98462.91;;;21.99;80.90
9899;BME280;4988;49.238;6.698;2022-08-16T08:13:20;98462.25;;;22.06;81.12
9899;BME280;4988;49.238;6.698;2022-08-16T08:15:45;98450.34;;;22.33;80.97
9899;BME280;4988;49.238;6.698;2022-08-16T08:18:11;98457.44;;;22.60;79.44
9899;BME280;4988;49.238;6.698;2022-08-16T08:20:38;98463.22;;;22.74;78.09
9899;BME280;4988;49.238;6.698;2022-08-16T08:23:07;98453.78;;;22.94;77.90
9899;BME280;4988;49.238;6.698;2022-08-16T08:25:32;98447.06;;;23.23;77.27
9899;BME280;4988;49.238;6.698;2022-08-16T08:27:57;98448.59;;;23.51;75.67
9899;BME280;4988;49.238;6.698;2022-08-16T08:30:23;98451.63;;;23.23;75.12
9899;BME280;4988;49.238;6.698;2022-08-16T08:32:48;98452.44;;;23.07;76.15
9899;BME280;4988;49.238;6.698;2022-08-16T08:35:14;98468.22;;;23.03;75.45
9899;BME280;4988;49.238;6.698;2022-08-16T08:37:40;98465.16;;;22.98;74.52
9899;BME280;4988;49.238;6.698;2022-08-16T08:40:08;98471.25;;;22.92;74.96
9899;BME280;4988;49.238;6.698;2022-08-16T08:42:34;98460.03;;;22.78;75.51
9899;BME280;4988;49.238;6.698;2022-08-16T08:45:00;98459.72;;;22.90;75.80
9899;BME280;4988;49.238;6.698;2022-08-16T08:47:27;98462.47;;;23.06;74.74
9899;BME280;4988;49.238;6.698;2022-08-16T08:49:53;98459.44;;;23.18;73.52
9899;BME280;4988;49.238;6.698;2022-08-16T08:52:20;98458.38;;;23.10;73.77
9899;BME280;4988;49.238;6.698;2022-08-16T08:54:46;98467.03;;;23.06;73.90
9899;BME280;4988;49.238;6.698;2022-08-16T08:57:11;98465.38;;;23.21;73.91
9899;BME280;4988;49.238;6.698;2022-08-16T08:59:37;98467.44;;;23.52;72.66
9899;BME280;4988;49.238;6.698;2022-08-16T09:02:03;98474.34;;;23.80;71.29
9899;BME280;4988;49.238;6.698;2022-08-16T09:04:29;98466.34;;;24.03;70.93
9899;BME280;4988;49.238;6.698;2022-08-16T09:06:55;98459.47;;;24.32;70.31
9899;BME280;4988;49.238;6.698;2022-08-16T09:09:21;98464.00;;;24.48;68.24
9899;BME280;4988;49.238;6.698;2022-08-16T09:11:47;98454.94;;;24.55;67.72
9899;BME280;4988;49.238;6.698;2022-08-16T09:14:13;98457.47;;;24.65;66.10
9899;BME280;4988;49.238;6.698;2022-08-16T09:16:39;98468.66;;;24.62;67.16
9899;BME280;4988;49.238;6.698;2022-08-16T09:19:04;98475.03;;;24.46;67.32
9899;BME280;4988;49.238;6.698;2022-08-16T09:21:29;98472.22;;;24.31;68.14
9899;BME280;4988;49.238;6.698;2022-08-16T09:23:55;98474.94;;;24.23;68.94
9899;BME280;4988;49.238;6.698;2022-08-16T09:26:21;98467.91;;;23.97;69.59
9899;BME280;4988;49.238;6.698;2022-08-16T09:28:48;98473.00;;;23.92;70.14
9899;BME280;4988;49.238;6.698;2022-08-16T09:31:14;98472.66;;;23.87;70.16
9899;BME280;4988;49.238;6.698;2022-08-16T09:33:41;98467.22;;;23.95;70.43
9899;BME280;4988;49.238;6.698;2022-08-16T09:36:07;98473.53;;;24.44;67.58
9899;BME280;4988;49.238;6.698;2022-08-16T09:38:34;98466.88;;;24.46;66.00
9899;BME280;4988;49.238;6.698;2022-08-16T09:41:05;98463.94;;;24.56;65.42
9899;BME280;4988;49.238;6.698;2022-08-16T09:43:35;98463.19;;;24.79;63.02
9899;BME280;4988;49.238;6.698;2022-08-16T09:46:03;98462.31;;;24.78;61.13
9899;BME280;4988;49.238;6.698;2022-08-16T09:48:29;98469.50;;;24.71;62.68
9899;BME280;4988;49.238;6.698;2022-08-16T09:50:56;98472.00;;;24.81;62.79
9899;BME280;4988;49.238;6.698;2022-08-16T09:53:22;98469.63;;;25.09;63.52
9899;BME280;4988;49.238;6.698;2022-08-16T09:55:51;98459.75;;;25.31;61.17
9899;BME280;4988;49.238;6.698;2022-08-16T09:58:18;98462.47;;;25.55;60.20
9899;BME280;4988;49.238;6.698;2022-08-16T10:00:43;98462.81;;;25.75;60.45
9899;BME280;4988;49.238;6.698;2022-08-16T10:03:09;98460.19;;;25.96;60.37
9899;BME280;4988;49.238;6.698;2022-08-16T10:05:35;98469.00;;;26.07;58.39
9899;BME280;4988;49.238;6.698;2022-08-16T10:08:05;98459.38;;;25.96;57.71
9899;BME280;4988;49.238;6.698;2022-08-16T10:10:32;98461.06;;;25.97;57.34
9899;BME280;4988;49.238;6.698;2022-08-16T10:12:59;98455.88;;;26.02;57.34
9899;BME280;4988;49.238;6.698;2022-08-16T10:15:38;98473.63;;;25.83;57.16
9899;BME280;4988;49.238;6.698;2022-08-16T10:18:05;98457.66;;;25.95;57.08
9899;BME280;4988;49.238;6.698;2022-08-16T10:20:36;98458.97;;;25.84;56.34
9899;BME280;4988;49.238;6.698;2022-08-16T10:23:13;98457.16;;;25.61;56.71
9899;BME280;4988;49.238;6.698;2022-08-16T10:25:42;98460.31;;;25.50;57.31
9899;BME280;4988;49.238;6.698;2022-08-16T10:28:09;98459.66;;;25.48;56.44
9899;BME280;4988;49.238;6.698;2022-08-16T10:30:35;98459.53;;;25.41;57.11
9899;BME280;4988;49.238;6.698;2022-08-16T10:33:02;98462.63;;;25.38;57.90
9899;BME280;4988;49.238;6.698;2022-08-16T10:35:27;98458.69;;;25.41;57.47
9899;BME280;4988;49.238;6.698;2022-08-16T10:37:53;98471.34;;;25.72;56.84
9899;BME280;4988;49.238;6.698;2022-08-16T10:40:19;98470.84;;;25.53;55.85
9899;BME280;4988;49.238;6.698;2022-08-16T10:42:45;98475.22;;;25.62;55.66
9899;BME280;4988;49.238;6.698;2022-08-16T10:45:10;98478.78;;;25.63;56.73
9899;BME280;4988;49.238;6.698;2022-08-16T10:47:36;98470.69;;;25.69;56.09
9899;BME280;4988;49.238;6.698;2022-08-16T10:50:04;98473.50;;;25.61;55.11
9899;BME280;4988;49.238;6.698;2022-08-16T10:52:30;98476.53;;;25.81;55.54
9899;BME280;4988;49.238;6.698;2022-08-16T10:54:56;98477.72;;;26.02;55.25
9899;BME280;4988;49.238;6.698;2022-08-16T10:57:21;98477.78;;;25.94;54.86
9899;BME280;4988;49.238;6.698;2022-08-16T10:59:47;98477.75;;;25.64;56.16
9899;BME280;4988;49.238;6.698;2022-08-16T11:02:12;98477.16;;;25.30;56.40
9899;BME280;4988;49.238;6.698;2022-08-16T11:04:38;98481.63;;;25.23;55.59
9899;BME280;4988;49.238;6.698;2022-08-16T11:07:04;98477.88;;;25.24;56.34
9899;BME280;4988;49.238;6.698;2022-08-16T11:09:30;98482.59;;;25.30;57.53
9899;BME280;4988;49.238;6.698;2022-08-16T11:11:55;98487.38;;;25.28;57.22
9899;BME280;4988;49.238;6.698;2022-08-16T11:14:21;98482.97;;;25.50;55.91
9899;BME280;4988;49.238;6.698;2022-08-16T11:16:48;98482.56;;;25.77;55.13
9899;BME280;4988;49.238;6.698;2022-08-16T11:19:14;98478.50;;;26.11;54.45
9899;BME280;4988;49.238;6.698;2022-08-16T11:21:41;98481.59;;;26.38;54.08
9899;BME280;4988;49.238;6.698;2022-08-16T11:24:07;98478.47;;;26.41;53.64
9899;BME280;4988;49.238;6.698;2022-08-16T11:26:32;98486.75;;;26.62;52.74
9899;BME280;4988;49.238;6.698;2022-08-16T11:28:58;98481.03;;;26.42;52.21
9899;BME280;4988;49.238;6.698;2022-08-16T11:31:24;98489.00;;;26.14;52.75
9899;BME280;4988;49.238;6.698;2022-08-16T11:33:49;98479.31;;;26.11;52.98
9899;BME280;4988;49.238;6.698;2022-08-16T11:36:15;98480.56;;;26.09;53.52
9899;BME280;4988;49.238;6.698;2022-08-16T11:38:40;98476.44;;;26.13;52.27
9899;BME280;4988;49.238;6.698;2022-08-16T11:41:06;98474.94;;;26.10;52.00
9899;BME280;4988;49.238;6.698;2022-08-16T11:43:34;98477.22;;;25.98;52.50
9899;BME280;4988;49.238;6.698;2022-08-16T11:46:03;98477.44;;;25.97;52.67
9899;BME280;4988;49.238;6.698;2022-08-16T11:48:30;98485.59;;;25.97;52.92
9899;BME280;4988;49.238;6.698;2022-08-16T11:50:58;98478.47;;;25.96;53.53
9899;BME280;4988;49.238;6.698;2022-08-16T11:53:25;98476.47;;;26.05;52.84
9899;BME280;4988;49.238;6.698;2022-08-16T11:55:54;98476.59;;;26.11;52.80
9899;BME280;4988;49.238;6.698;2022-08-16T11:58:21;98477.72;;;26.02;52.46
9899;BME280;4988;49.238;6.698;2022-08-16T12:00:47;98474.78;;;26.04;53.26
9899;BME280;4988;49.238;6.698;2022-08-16T12:03:13;98476.75;;;25.95;53.49
9899;BME280;4988;49.238;6.698;2022-08-16T12:05:41;98466.03;;;25.93;53.32
9899;BME280;4988;49.238;6.698;2022-08-16T12:08:07;98460.75;;;25.92;53.30
9899;BME280;4988;49.238;6.698;2022-08-16T12:10:34;98463.06;;;26.18;53.29
9899;BME280;4988;49.238;6.698;2022-08-16T12:13:00;98470.13;;;26.42;51.38
9899;BME280;4988;49.238;6.698;2022-08-16T12:15:25;98461.69;;;26.74;50.30
9899;BME280;4988;49.238;6.698;2022-08-16T12:17:52;98464.50;;;26.95;49.76
9899;BME280;4988;49.238;6.698;2022-08-16T12:20:22;98465.91;;;27.13;49.02
9899;BME280;4988;49.238;6.698;2022-08-16T12:22:50;98456.22;;;27.10;49.84
9899;BME280;4988;49.238;6.698;2022-08-16T12:25:17;98461.28;;;27.13;48.99
9899;BME280;4988;49.238;6.698;2022-08-16T12:27:43;98453.09;;;27.13;48.89
9899;BME280;4988;49.238;6.698;2022-08-16T12:30:12;98461.69;;;27.32;49.18
9899;BME280;4988;49.238;6.698;2022-08-16T12:32:38;98460.88;;;27.53;48.92
9899;BME280;4988;49.238;6.698;2022-08-16T12:35:04;98454.09;;;27.49;48.55
9899;BME280;4988;49.238;6.698;2022-08-16T12:37:32;98463.44;;;27.61;47.55
9899;BME280;4988;49.238;6.698;2022-08-16T12:39:57;98458.09;;;27.75;48.46
9899;BME280;4988;49.238;6.698;2022-08-16T12:42:24;98457.16;;;27.89;47.42
9899;BME280;4988;49.238;6.698;2022-08-16T12:44:50;98452.41;;;28.05;46.96
9899;BME280;4988;49.238;6.698;2022-08-16T12:47:16;98456.53;;;28.22;46.89
9899;BME280;4988;49.238;6.698;2022-08-16T12:50:00;98455.38;;;28.38;45.64
9899;BME280;4988;49.238;6.698;2022-08-16T12:52:26;98452.56;;;28.32;45.61
9899;BME280;4988;49.238;6.698;2022-08-16T12:54:52;98456.13;;;28.25;46.28
9899;BME280;4988;49.238;6.698;2022-08-16T12:57:19;98447.47;;;28.22;44.72
9899;BME280;4988;49.238;6.698;2022-08-16T12:59:44;98452.56;;;27.97;45.43
9899;BME280;4988;49.238;6.698;2022-08-16T13:02:09;98449.38;;;27.65;46.22
9899;BME280;4988;49.238;6.698;2022-08-16T13:04:35;98451.09;;;27.44;46.34
9899;BME280;4988;49.238;6.698;2022-08-16T13:07:03;98447.56;;;27.07;47.04
9899;BME280;4988;49.238;6.698;2022-08-16T13:09:29;98449.28;;;27.08;47.29
9899;BME280;4988;49.238;6.698;2022-08-16T13:11:58;98451.03;;;27.16;47.58
9899;BME280;4988;49.238;6.698;2022-08-16T13:14:37;98443.94;;;27.21;46.76
9899;BME280;4988;49.238;6.698;2022-08-16T13:17:06;98448.28;;;27.16;46.73
9899;BME280;4988;49.238;6.698;2022-08-16T13:19:32;98442.09;;;27.28;46.57